createdAt,value
2019-03-22T00:04:45.239Z,7.57
2019-03-22T00:09:47.726Z,8.03
2019-03-22T00:14:50.217Z,7.33
2019-03-22T00:19:52.686Z,7.10
2019-03-22T00:24:55.147Z,7.57
2019-03-22T00:29:57.611Z,7.90
2019-03-22T00:35:00.090Z,7.97
2019-03-22T00:40:02.557Z,7.57
2019-03-22T00:45:07.840Z,7.33
2019-03-22T00:50:10.320Z,6.80
2019-03-22T00:55:12.780Z,7.20
2019-03-22T01:00:15.242Z,6.83
2019-03-22T01:05:17.707Z,6.90
2019-03-22T01:10:20.194Z,7.10
2019-03-22T01:15:22.674Z,7.00
2019-03-22T01:20:25.191Z,6.97
2019-03-22T01:25:27.659Z,7.47
2019-03-22T01:30:30.127Z,7.40
2019-03-22T01:35:35.634Z,7.50
2019-03-22T01:40:36.650Z,7.13
2019-03-22T01:45:39.118Z,6.87
2019-03-22T01:50:41.584Z,7.30
2019-03-22T01:55:44.047Z,7.50
2019-03-22T02:00:46.511Z,7.07
2019-03-22T02:05:48.975Z,7.30
2019-03-22T02:10:51.460Z,7.27
2019-03-22T02:15:53.904Z,6.73
2019-03-22T02:20:56.399Z,6.30
2019-03-22T02:25:58.869Z,6.57
2019-03-22T02:31:01.319Z,7.20
2019-03-22T02:36:03.772Z,6.50
2019-03-22T02:41:06.261Z,5.93
2019-03-22T02:46:08.714Z,6.83
2019-03-22T02:51:11.187Z,6.30
2019-03-22T02:56:13.753Z,6.40
2019-03-22T03:01:16.154Z,6.20
2019-03-22T03:06:18.616Z,6.07
2019-03-22T03:11:21.070Z,6.33
2019-03-22T03:16:23.535Z,6.33
2019-03-22T03:21:26.009Z,6.03
2019-03-22T03:26:28.483Z,5.50
2019-03-22T03:31:30.968Z,6.57
2019-03-22T03:36:35.061Z,6.20
2019-03-22T03:41:35.935Z,6.03
2019-03-22T03:46:38.390Z,6.53
2019-03-22T03:51:40.843Z,6.30
2019-03-22T03:56:43.310Z,6.03
2019-03-22T04:01:45.819Z,5.97
2019-03-22T04:06:48.347Z,6.40
2019-03-22T04:11:50.812Z,6.10
2019-03-22T04:16:53.298Z,6.60
2019-03-22T04:21:55.788Z,5.67
2019-03-22T04:26:58.438Z,6.27
2019-03-22T04:32:00.903Z,6.63
2019-03-22T04:37:03.368Z,6.27
2019-03-22T04:42:05.829Z,6.20
2019-03-22T04:47:08.316Z,5.97
2019-03-22T04:52:10.785Z,6.50
2019-03-22T04:57:13.249Z,6.07
2019-03-22T05:02:15.786Z,6.37
2019-03-22T05:07:18.248Z,6.70
2019-03-22T05:12:20.669Z,7.00
2019-03-22T05:17:23.133Z,6.90
2019-03-22T05:22:25.651Z,7.23
2019-03-22T05:27:28.132Z,7.33
2019-03-22T05:32:30.583Z,7.97
2019-03-22T05:37:33.047Z,8.60
2019-03-22T05:42:35.517Z,7.40
2019-03-22T05:47:37.988Z,7.90
2019-03-22T05:52:40.472Z,8.07
2019-03-22T05:57:42.960Z,8.43
2019-03-22T06:02:45.440Z,7.40
2019-03-22T06:07:47.912Z,8.27
2019-03-22T06:12:50.549Z,7.47
2019-03-22T06:17:53.010Z,7.70
2019-03-22T06:22:55.495Z,7.90
2019-03-22T06:27:57.965Z,8.47
2019-03-22T06:33:00.474Z,7.87
2019-03-22T06:38:02.938Z,7.90
2019-03-22T06:43:05.407Z,7.47
2019-03-22T06:48:07.880Z,7.20
2019-03-22T06:53:10.351Z,7.53
2019-03-22T06:58:12.809Z,6.73
2019-03-22T07:03:15.276Z,7.70
2019-03-22T07:08:17.755Z,7.47
2019-03-22T07:13:20.251Z,7.50
2019-03-22T07:18:22.733Z,7.00
2019-03-22T07:23:25.233Z,7.90
2019-03-22T07:28:27.691Z,7.87
2019-03-22T07:33:30.172Z,7.87
2019-03-22T07:38:32.645Z,8.13
2019-03-22T07:43:35.151Z,7.87
2019-03-22T07:48:37.614Z,7.73
2019-03-22T07:53:40.136Z,8.33
2019-03-22T07:58:42.603Z,7.67
2019-03-22T08:03:45.077Z,6.67
2019-03-22T08:08:47.548Z,6.90
2019-03-22T08:13:50.038Z,6.70
2019-03-22T08:18:52.512Z,6.40
2019-03-22T08:23:54.991Z,6.30
2019-03-22T08:28:57.500Z,5.77
2019-03-22T08:34:00.075Z,6.18
2019-03-22T08:39:02.580Z,5.97
2019-03-22T08:44:05.041Z,6.97
2019-03-22T08:49:09.512Z,6.40
2019-03-22T08:54:09.991Z,6.80
2019-03-22T08:59:13.540Z,6.40
2019-03-22T09:04:14.913Z,6.03
2019-03-22T09:09:41.577Z,6.60
2019-03-22T09:14:39.519Z,6.73
2019-03-22T09:19:42.009Z,6.53
2019-03-22T09:24:44.459Z,6.05
2019-03-22T09:29:47.518Z,7.28
2019-03-22T09:34:49.432Z,7.05
2019-03-22T09:39:51.913Z,6.78
2019-03-22T09:44:54.393Z,6.37
2019-03-22T09:49:56.909Z,6.20
2019-03-22T09:55:12.194Z,5.70
2019-03-22T10:00:01.840Z,5.85
2019-03-22T10:05:04.367Z,6.43
2019-03-22T10:10:06.789Z,6.10
2019-03-22T10:15:09.471Z,6.25
2019-03-22T10:20:22.637Z,5.85
2019-03-22T10:25:14.522Z,6.80
2019-03-22T10:30:16.968Z,6.82
2019-03-22T10:35:25.922Z,6.90
2019-03-22T10:40:21.936Z,6.68
2019-03-22T10:45:24.342Z,6.78
2019-03-22T10:50:26.874Z,6.35
2019-03-22T10:55:30.704Z,6.82
2019-03-22T11:00:31.725Z,6.03
2019-03-22T11:05:34.204Z,6.55
2019-03-22T11:10:36.659Z,5.62
2019-03-22T11:15:48.136Z,5.65
2019-03-22T11:20:41.718Z,5.60
2019-03-22T11:25:44.167Z,7.32
2019-03-22T11:30:46.656Z,7.10
2019-03-22T11:35:49.168Z,7.70
2019-03-22T11:40:51.638Z,7.30
2019-03-22T11:45:54.101Z,8.53
2019-03-22T11:50:56.582Z,7.60
2019-03-22T11:55:59.054Z,7.60
2019-03-22T12:01:01.513Z,7.13
2019-03-22T12:06:03.976Z,6.83
2019-03-22T12:11:06.430Z,7.47
2019-03-22T12:16:08.916Z,7.30
2019-03-22T12:21:11.376Z,6.47
2019-03-22T12:26:13.847Z,7.40
2019-03-22T12:31:16.324Z,7.47
2019-03-22T12:36:18.800Z,6.73
2019-03-22T12:41:21.263Z,6.60
2019-03-22T12:46:23.753Z,6.63
2019-03-22T12:51:26.238Z,6.00
2019-03-22T12:56:28.729Z,5.50
2019-03-22T13:01:31.192Z,5.30
2019-03-22T13:06:33.666Z,5.07
2019-03-22T13:11:36.299Z,5.60
2019-03-22T13:16:38.754Z,5.83
2019-03-22T13:21:41.217Z,6.10
2019-03-22T13:26:43.715Z,6.27
2019-03-22T13:31:46.197Z,6.27
2019-03-22T13:36:48.680Z,6.33
2019-03-22T13:41:51.150Z,6.37
2019-03-22T13:46:53.603Z,5.87
2019-03-22T13:51:56.072Z,6.53
2019-03-22T13:56:58.538Z,7.10
2019-03-22T14:02:01.032Z,5.60
2019-03-22T14:07:03.505Z,5.83
2019-03-22T14:12:05.993Z,5.97
2019-03-22T14:17:08.478Z,6.43
2019-03-22T14:22:10.958Z,5.87
2019-03-22T14:27:13.408Z,6.67
2019-03-22T14:32:15.869Z,5.97
2019-03-22T14:37:18.360Z,6.10
2019-03-22T14:42:20.826Z,6.20
2019-03-22T14:47:23.306Z,6.27
2019-03-22T14:52:25.760Z,5.30
2019-03-22T14:57:28.241Z,5.47
2019-03-22T15:02:30.716Z,5.27
2019-03-22T15:07:33.200Z,5.20
2019-03-22T15:12:35.645Z,4.70
2019-03-22T15:17:56.238Z,4.57
2019-03-22T15:23:10.695Z,4.63
2019-03-22T15:28:22.144Z,5.00
2019-03-22T15:33:34.645Z,4.93
2019-03-22T15:38:48.030Z,4.23
2019-03-22T15:43:50.310Z,4.33
2019-03-22T15:48:52.787Z,4.87
2019-03-22T15:53:55.244Z,4.93
2019-03-22T15:58:57.766Z,4.70
2019-03-22T16:04:00.247Z,6.13
2019-03-22T16:09:02.701Z,4.10
2019-03-22T16:14:05.169Z,4.33
2019-03-22T16:19:07.615Z,4.70
2019-03-22T16:24:10.668Z,6.90
2019-03-22T16:29:13.103Z,5.27
2019-03-22T16:34:15.568Z,5.07
2019-03-22T16:39:18.064Z,4.80
2019-03-22T16:44:20.528Z,4.63
2019-03-22T16:49:22.986Z,4.90
2019-03-22T16:54:29.499Z,5.50
2019-03-22T16:59:31.969Z,5.37
2019-03-22T17:04:34.440Z,5.27
2019-03-22T17:09:36.920Z,5.97
2019-03-22T17:14:39.383Z,5.77
2019-03-22T17:19:41.861Z,5.63
2019-03-22T17:24:44.339Z,5.87
2019-03-22T17:29:46.803Z,5.40
2019-03-22T17:34:49.289Z,5.63
2019-03-22T17:39:51.751Z,8.30
2019-03-22T17:44:54.222Z,5.73
2019-03-22T17:49:56.686Z,5.77
2019-03-22T17:54:59.153Z,6.27
2019-03-22T18:00:01.613Z,6.30
2019-03-22T18:05:04.101Z,6.33
2019-03-22T18:10:06.576Z,6.10
2019-03-22T18:15:09.043Z,6.03
2019-03-22T18:20:14.200Z,6.57
2019-03-22T18:25:16.668Z,5.43
2019-03-22T18:30:19.128Z,6.40
2019-03-22T18:35:21.612Z,7.87
2019-03-22T18:40:24.067Z,10.23
2019-03-22T18:45:26.532Z,10.40
2019-03-22T18:50:28.999Z,12.57
2019-03-22T18:55:31.481Z,12.57
2019-03-22T19:00:33.959Z,10.67
2019-03-22T19:05:36.447Z,10.00
2019-03-22T19:10:38.950Z,8.50
2019-03-22T19:15:41.446Z,12.10
2019-03-22T19:20:43.926Z,18.37
2019-03-22T19:25:46.409Z,28.33
2019-03-22T19:30:48.882Z,28.30
2019-03-22T19:35:51.372Z,20.47
2019-03-22T19:40:53.848Z,20.60
2019-03-22T19:45:56.354Z,21.37
2019-03-22T19:50:58.801Z,20.83
2019-03-22T19:56:01.278Z,18.30
2019-03-22T20:01:03.778Z,15.63
2019-03-22T20:06:06.274Z,15.43
2019-03-22T20:11:08.742Z,14.43
2019-03-22T20:16:11.200Z,15.83
2019-03-22T20:21:13.665Z,15.00
2019-03-22T20:26:16.155Z,23.27
2019-03-22T20:31:18.653Z,23.37
2019-03-22T20:36:21.127Z,20.17
2019-03-22T20:41:23.604Z,18.10
2019-03-22T20:46:26.073Z,15.00
2019-03-22T20:51:28.560Z,13.73
2019-03-22T20:56:31.032Z,12.80
2019-03-22T21:01:33.507Z,11.73
2019-03-22T21:06:35.989Z,12.30
2019-03-22T21:11:38.455Z,11.10
2019-03-22T21:16:40.941Z,10.50
2019-03-22T21:21:43.422Z,10.67
2019-03-22T21:26:45.904Z,11.63
2019-03-22T21:31:48.399Z,12.97
2019-03-22T21:36:50.863Z,13.03
2019-03-22T21:41:53.343Z,13.77
2019-03-22T21:46:55.898Z,12.50
2019-03-22T21:51:58.307Z,12.33
2019-03-22T21:57:00.805Z,12.40
2019-03-22T22:02:03.320Z,11.57
2019-03-22T22:07:05.850Z,11.33
2019-03-22T22:12:08.342Z,10.53
2019-03-22T22:17:10.842Z,10.97
2019-03-22T22:22:13.318Z,11.23
2019-03-22T22:27:15.839Z,11.10
2019-03-22T22:32:18.294Z,11.27
2019-03-22T22:37:20.805Z,10.73
2019-03-22T22:42:23.293Z,10.93
2019-03-22T22:47:25.776Z,11.47
2019-03-22T22:52:31.049Z,11.67
2019-03-22T22:57:33.542Z,11.00
2019-03-22T23:02:36.010Z,10.43
2019-03-22T23:07:38.515Z,10.57
2019-03-22T23:12:40.976Z,10.80
2019-03-22T23:17:43.455Z,11.27
2019-03-22T23:22:45.906Z,12.13
2019-03-22T23:27:48.383Z,11.73
2019-03-22T23:32:50.869Z,12.77
2019-03-22T23:37:53.341Z,12.03
2019-03-22T23:42:55.827Z,11.07
2019-03-22T23:47:58.300Z,11.33
2019-03-22T23:53:00.776Z,12.13
2019-03-22T23:58:03.249Z,11.60
